Maple, NC (27956)

8:19 PM EDT on August 30, 2014 (GMT -0400)
Currituck | Change Station
CLOSE
Current Station
Airport
Location: Currituck,
Elevation: 16 ft
Nearby Weather Stations

Elev 16 ft 36.40 °N, 76.02 °W | Updated 24 minutes ago

Clear
Clear
79 °F
Feels Like 79 °F
N
0
Wind Variable Wind from North

Today
High -- | Low -- °F
--% Chance of Precip.
Yesterday
High -- | Low -- °F
Precip. -- in
6:33 AM 7:34 PM
Waxing Crescent, 26% visible
Pressure 30.15 in
Visibility 10.0 miles
Clouds Clear
Dew Point 72 °F
Humidity 80%
Rainfall 0.00 in
Snow Depth Not available.
UV 0 out of 12
Pollen 8.90 out of 12
Air Quality Not available.
Flu Activity Not available.
METAR KONX 302355Z AUTO 00000KT 10SM CLR 26/23 A3015 RMK AO2 6//// T02610225

More Conditions Fewer Conditions

Pressure 30.15 in
Visibility 10.0 miles
Clouds Clear
Dew Point 72 °F
Humidity 80%
Rainfall 0.00 in
Snow Depth Not available.
UV 0 out of 12
Pollen 8.90 out of 12
Air Quality Not available.
Flu Activity Not available.
METAR KONX 302355Z AUTO 00000KT 10SM CLR 26/23 A3015 RMK AO2 6//// T02610225

More Conditions Fewer Conditions

10-Day Weather Forecast

Almanac

Astronomy

Aug. 30, 2014 Rise Set
Actual Time 6:33 AM EDT 7:34 PM EDT
Civil Twilight 6:07 AM EDT 8:01 PM EDT
Nautical Twilight 5:35 AM EDT 8:32 PM EDT
Astronomical Twilight 5:03 AM EDT 9:04 PM EDT
Moon 11:10 AM EDT (8/30) 10:17 PM EDT (8/30)
Length of Visible Light 13h 53m
Length of Day
13h 00m
Tomorrow will be 2m 13s shorter.
Waxing Crescent, 26% of the Moon is Illuminated
Today
Waxing Crescent
Sep 2
First Quarter
Sep 8
Full
Sep 15
Last Quarter
Sep 24
New

Today's Extremes

State Highs State Lows

Community

WunderPhotos

Upload Photos

1,748,696 photos uploaded!

Nearby

Snow Depth

Station Depth Elevation
No new snow has been reported.

Earthquake Activity

City Distance Mag. Time & Date
No recent earthquake activity has been reported nearby.
Minimum magnitude displayed is 2.5.

Coastal Water Temperatures

Place Temperature
Duck Pier, NC 79.0 °F
Oregon Inlet Marina, NC 78.1 °F
Money Point, VA 87.1 °F
Sewells Point, VA 79.0 °F
Chesapeake Bay Bridge Tunnel, VA 78.1 °F

Nearby Weather Stations